sensor_id;sensor_type;location;lat;lon;timestamp;pressure;altitude;pressure_sealevel;temperature;humidity
64453;BME280;50813;52.654;6.766;2023-02-23T00:01:18;101191.0;;;8.47;100.0
64453;BME280;50813;52.654;6.766;2023-02-23T00:02:55;101193.0;;;8.49;100.0
64453;BME280;50813;52.654;6.766;2023-02-23T00:04:32;101194.0;;;8.48;100.0
64453;BME280;50813;52.654;6.766;2023-02-23T00:06:09;101199.0;;;8.45;100.0
64453;BME280;50813;52.654;6.766;2023-02-23T00:09:22;101193.0;;;8.57;100.0
64453;BME280;50813;52.654;6.766;2023-02-23T00:10:59;101199.0;;;8.35;100.0
64453;BME280;50813;52.654;6.766;2023-02-23T00:12:35;101196.0;;;8.48;100.0
64453;BME280;50813;52.654;6.766;2023-02-23T00:15:47;101198.0;;;8.56;100.0
64453;BME280;50813;52.654;6.766;2023-02-23T00:17:23;101203.0;;;8.44;100.0
64453;BME280;50813;52.654;6.766;2023-02-23T00:19:01;101205.0;;;8.31;100.0
64453;BME280;50813;52.654;6.766;2023-02-23T00:22:19;101205.0;;;8.33;100.0
64453;BME280;50813;52.654;6.766;2023-02-23T00:23:57;101206.0;;;8.3;100.0
64453;BME280;50813;52.654;6.766;2023-02-23T00:25:37;101208.0;;;8.39;100.0
64453;BME280;50813;52.654;6.766;2023-02-23T00:27:18;101199.0;;;8.48;100.0
64453;BME280;50813;52.654;6.766;2023-02-23T00:30:33;101200.0;;;8.43;100.0
64453;BME280;50813;52.654;6.766;2023-02-23T00:32:11;101202.0;;;8.59;100.0
64453;BME280;50813;52.654;6.766;2023-02-23T00:33:51;101199.0;;;8.5;100.0
64453;BME280;50813;52.654;6.766;2023-02-23T00:35:28;101197.0;;;8.5;100.0
64453;BME280;50813;52.654;6.766;2023-02-23T00:38:40;101201.0;;;8.49;100.0
64453;BME280;50813;52.654;6.766;2023-02-23T00:40:19;101198.0;;;8.58;100.0
64453;BME280;50813;52.654;6.766;2023-02-23T00:41:56;101196.0;;;8.67;100.0
64453;BME280;50813;52.654;6.766;2023-02-23T00:45:12;101196.0;;;8.64;100.0
64453;BME280;50813;52.654;6.766;2023-02-23T00:46:51;101198.0;;;8.5;100.0
64453;BME280;50813;52.654;6.766;2023-02-23T00:48:28;101197.0;;;8.64;100.0
64453;BME280;50813;52.654;6.766;2023-02-23T00:50:05;101199.0;;;8.57;100.0
64453;BME280;50813;52.654;6.766;2023-02-23T00:53:18;101197.0;;;8.52;100.0
64453;BME280;50813;52.654;6.766;2023-02-23T00:54:56;101197.0;;;8.56;100.0
64453;BME280;50813;52.654;6.766;2023-02-23T00:56:32;101201.0;;;8.52;100.0
64453;BME280;50813;52.654;6.766;2023-02-23T00:59:45;101205.0;;;8.6;100.0
64453;BME280;50813;52.654;6.766;2023-02-23T01:01:22;101208.0;;;8.49;100.0
64453;BME280;50813;52.654;6.766;2023-02-23T01:02:58;101205.0;;;8.45;100.0
64453;BME280;50813;52.654;6.766;2023-02-23T01:06:12;101200.0;;;8.57;100.0
64453;BME280;50813;52.654;6.766;2023-02-23T01:07:48;101202.0;;;8.4;100.0
64453;BME280;50813;52.654;6.766;2023-02-23T01:09:27;101201.0;;;8.64;100.0
64453;BME280;50813;52.654;6.766;2023-02-23T01:11:05;101200.0;;;8.67;100.0
64453;BME280;50813;52.654;6.766;2023-02-23T01:14:22;101200.0;;;8.57;100.0
64453;BME280;50813;52.654;6.766;2023-02-23T01:15:58;101195.0;;;8.73;100.0
64453;BME280;50813;52.654;6.766;2023-02-23T01:17:34;101197.0;;;8.64;100.0
64453;BME280;50813;52.654;6.766;2023-02-23T01:20:50;101201.0;;;8.66;100.0
64453;BME280;50813;52.654;6.766;2023-02-23T01:22:25;101200.0;;;8.63;100.0
64453;BME280;50813;52.654;6.766;2023-02-23T01:24:02;101205.0;;;8.52;100.0
64453;BME280;50813;52.654;6.766;2023-02-23T01:25:41;101206.0;;;8.65;100.0
64453;BME280;50813;52.654;6.766;2023-02-23T01:28:57;101208.0;;;8.73;100.0
64453;BME280;50813;52.654;6.766;2023-02-23T01:30:34;101202.0;;;8.73;100.0
64453;BME280;50813;52.654;6.766;2023-02-23T01:32:11;101208.0;;;8.76;100.0
64453;BME280;50813;52.654;6.766;2023-02-23T01:35:28;101206.0;;;8.8;100.0
64453;BME280;50813;52.654;6.766;2023-02-23T01:37:04;101208.0;;;8.67;100.0
64453;BME280;50813;52.654;6.766;2023-02-23T01:38:41;101201.0;;;8.8;100.0
64453;BME280;50813;52.654;6.766;2023-02-23T01:40:27;101207.0;;;8.65;100.0
64453;BME280;50813;52.654;6.766;2023-02-23T01:43:56;101205.0;;;8.64;100.0
64453;BME280;50813;52.654;6.766;2023-02-23T01:45:35;101208.0;;;8.73;100.0
64453;BME280;50813;52.654;6.766;2023-02-23T01:47:13;101200.0;;;8.73;100.0
64453;BME280;50813;52.654;6.766;2023-02-23T01:48:50;101208.0;;;8.69;100.0
64453;BME280;50813;52.654;6.766;2023-02-23T01:52:15;101205.0;;;8.69;100.0
64453;BME280;50813;52.654;6.766;2023-02-23T01:53:58;101205.0;;;8.58;100.0
64453;BME280;50813;52.654;6.766;2023-02-23T01:55:35;101205.0;;;8.75;100.0
64453;BME280;50813;52.654;6.766;2023-02-23T01:57:13;101208.0;;;8.68;100.0
64453;BME280;50813;52.654;6.766;2023-02-23T02:00:35;101207.0;;;8.81;100.0
64453;BME280;50813;52.654;6.766;2023-02-23T02:02:13;101210.0;;;8.61;100.0
64453;BME280;50813;52.654;6.766;2023-02-23T02:03:54;101207.0;;;8.73;100.0
64453;BME280;50813;52.654;6.766;2023-02-23T02:05:32;101205.0;;;8.73;100.0
64453;BME280;50813;52.654;6.766;2023-02-23T02:08:51;101205.0;;;8.6;100.0
64453;BME280;50813;52.654;6.766;2023-02-23T02:10:46;101206.0;;;8.58;100.0
64453;BME280;50813;52.654;6.766;2023-02-23T02:12:22;101206.0;;;8.58;100.0
64453;BME280;50813;52.654;6.766;2023-02-23T02:14:01;101206.0;;;8.64;100.0
64453;BME280;50813;52.654;6.766;2023-02-23T02:17:42;101206.0;;;8.65;100.0
64453;BME280;50813;52.654;6.766;2023-02-23T02:25:18;101205.0;;;8.61;100.0
64453;BME280;50813;52.654;6.766;2023-02-23T02:27:44;101201.0;;;8.71;100.0
64453;BME280;50813;52.654;6.766;2023-02-23T02:29:55;101205.0;;;8.56;100.0
64453;BME280;50813;52.654;6.766;2023-02-23T02:32:40;101208.0;;;8.58;100.0
64453;BME280;50813;52.654;6.766;2023-02-23T02:36:52;101205.0;;;8.51;100.0
64453;BME280;50813;52.654;6.766;2023-02-23T02:39:42;101198.0;;;8.52;100.0
64453;BME280;50813;52.654;6.766;2023-02-23T02:41:30;101191.0;;;8.68;100.0
64453;BME280;50813;52.654;6.766;2023-02-23T02:43:16;101191.0;;;8.73;100.0
64453;BME280;50813;52.654;6.766;2023-02-23T02:46:45;101190.0;;;8.67;100.0
64453;BME280;50813;52.654;6.766;2023-02-23T02:48:32;101192.0;;;8.67;100.0
64453;BME280;50813;52.654;6.766;2023-02-23T02:50:15;101190.0;;;8.66;100.0
64453;BME280;50813;52.654;6.766;2023-02-23T02:52:02;101192.0;;;8.6;100.0
64453;BME280;50813;52.654;6.766;2023-02-23T02:53:46;101193.0;;;8.56;100.0
64453;BME280;50813;52.654;6.766;2023-02-23T02:57:08;101198.0;;;8.63;100.0
64453;BME280;50813;52.654;6.766;2023-02-23T02:58:50;101193.0;;;8.69;100.0
64453;BME280;50813;52.654;6.766;2023-02-23T04:17:41;101227.0;;;9.02;100.0
64453;BME280;50813;52.654;6.766;2023-02-23T04:19:18;101224.0;;;9.1;100.0
64453;BME280;50813;52.654;6.766;2023-02-23T04:22:34;101223.0;;;9.14;100.0
64453;BME280;50813;52.654;6.766;2023-02-23T04:24:11;101222.0;;;8.98;100.0
64453;BME280;50813;52.654;6.766;2023-02-23T04:25:47;101228.0;;;8.93;100.0
64453;BME280;50813;52.654;6.766;2023-02-23T04:29:00;101225.0;;;8.92;100.0
64453;BME280;50813;52.654;6.766;2023-02-23T04:30:36;101227.0;;;8.98;100.0
64453;BME280;50813;52.654;6.766;2023-02-23T04:32:14;101230.0;;;9.06;100.0
64453;BME280;50813;52.654;6.766;2023-02-23T04:35:29;101225.0;;;9.14;100.0
64453;BME280;50813;52.654;6.766;2023-02-23T04:37:06;101223.0;;;9.32;100.0
64453;BME280;50813;52.654;6.766;2023-02-23T04:38:43;101226.0;;;9.28;100.0
64453;BME280;50813;52.654;6.766;2023-02-23T04:40:19;101230.0;;;9.28;100.0
64453;BME280;50813;52.654;6.766;2023-02-23T04:43:31;101230.0;;;9.31;100.0
64453;BME280;50813;52.654;6.766;2023-02-23T04:45:08;101230.0;;;9.31;100.0
64453;BME280;50813;52.654;6.766;2023-02-23T04:46:45;101227.0;;;9.3;100.0
64453;BME280;50813;52.654;6.766;2023-02-23T04:50:00;101232.0;;;9.23;100.0
64453;BME280;50813;52.654;6.766;2023-02-23T04:51:36;101233.0;;;9.31;100.0
64453;BME280;50813;52.654;6.766;2023-02-23T04:53:13;101232.0;;;9.39;100.0
64453;BME280;50813;52.654;6.766;2023-02-23T04:54:49;101234.0;;;9.34;100.0
64453;BME280;50813;52.654;6.766;2023-02-23T04:58:02;101230.0;;;9.28;100.0
64453;BME280;50813;52.654;6.766;2023-02-23T04:59:38;101237.0;;;9.14;100.0
64453;BME280;50813;52.654;6.766;2023-02-23T05:01:14;101236.0;;;9.26;100.0
64453;BME280;50813;52.654;6.766;2023-02-23T05:04:27;101237.0;;;9.22;100.0
64453;BME280;50813;52.654;6.766;2023-02-23T05:06:04;101235.0;;;9.24;100.0
64453;BME280;50813;52.654;6.766;2023-02-23T05:07:41;101239.0;;;9.01;100.0
64453;BME280;50813;52.654;6.766;2023-02-23T05:10:53;101231.0;;;9.06;100.0
64453;BME280;50813;52.654;6.766;2023-02-23T05:12:30;101235.0;;;9.05;100.0
64453;BME280;50813;52.654;6.766;2023-02-23T05:14:06;101233.0;;;9.03;100.0
64453;BME280;50813;52.654;6.766;2023-02-23T05:17:20;101236.0;;;8.85;100.0
64453;BME280;50813;52.654;6.766;2023-02-23T05:18:56;101239.0;;;8.82;100.0
64453;BME280;50813;52.654;6.766;2023-02-23T05:20:33;101238.0;;;8.89;100.0
64453;BME280;50813;52.654;6.766;2023-02-23T05:22:11;101235.0;;;8.96;100.0
64453;BME280;50813;52.654;6.766;2023-02-23T05:25:24;101234.0;;;8.94;100.0
64453;BME280;50813;52.654;6.766;2023-02-23T05:27:01;101235.0;;;9.06;100.0
64453;BME280;50813;52.654;6.766;2023-02-23T05:28:39;101236.0;;;8.98;100.0
64453;BME280;50813;52.654;6.766;2023-02-23T05:31:52;101239.0;;;9.02;100.0
64453;BME280;50813;52.654;6.766;2023-02-23T05:33:28;101241.0;;;9.0;100.0
64453;BME280;50813;52.654;6.766;2023-02-23T05:35:05;101240.0;;;8.97;100.0
64453;BME280;50813;52.654;6.766;2023-02-23T05:36:42;101243.0;;;8.93;100.0
64453;BME280;50813;52.654;6.766;2023-02-23T05:39:56;101241.0;;;8.94;100.0
64453;BME280;50813;52.654;6.766;2023-02-23T05:41:33;101245.0;;;8.89;100.0
64453;BME280;50813;52.654;6.766;2023-02-23T05:43:09;101242.0;;;8.93;100.0
64453;BME280;50813;52.654;6.766;2023-02-23T05:46:22;101246.0;;;8.89;100.0
64453;BME280;50813;52.654;6.766;2023-02-23T05:48:01;101246.0;;;8.8;100.0
64453;BME280;50813;52.654;6.766;2023-02-23T05:49:38;101247.0;;;8.89;100.0
64453;BME280;50813;52.654;6.766;2023-02-23T05:52:53;101250.0;;;8.9;100.0
64453;BME280;50813;52.654;6.766;2023-02-23T05:54:29;101242.0;;;8.98;100.0
64453;BME280;50813;52.654;6.766;2023-02-23T05:56:07;101246.0;;;8.98;100.0
64453;BME280;50813;52.654;6.766;2023-02-23T05:57:46;101249.0;;;8.85;100.0
64453;BME280;50813;52.654;6.766;2023-02-23T06:00:58;101250.0;;;9.03;100.0
64453;BME280;50813;52.654;6.766;2023-02-23T06:02:35;101255.0;;;8.89;100.0
64453;BME280;50813;52.654;6.766;2023-02-23T06:04:12;101263.0;;;8.83;100.0
64453;BME280;50813;52.654;6.766;2023-02-23T06:07:26;101268.0;;;8.83;100.0
64453;BME280;50813;52.654;6.766;2023-02-23T06:09:03;101265.0;;;8.98;100.0
64453;BME280;50813;52.654;6.766;2023-02-23T06:10:39;101268.0;;;8.93;100.0
64453;BME280;50813;52.654;6.766;2023-02-23T06:12:15;101268.0;;;8.9;100.0
64453;BME280;50813;52.654;6.766;2023-02-23T06:15:27;101270.0;;;8.93;100.0
64453;BME280;50813;52.654;6.766;2023-02-23T06:17:04;101270.0;;;8.93;100.0
64453;BME280;50813;52.654;6.766;2023-02-23T06:18:41;101275.0;;;8.8;100.0
64453;BME280;50813;52.654;6.766;2023-02-23T06:21:55;101275.0;;;8.74;100.0
64453;BME280;50813;52.654;6.766;2023-02-23T06:23:31;101280.0;;;8.77;100.0
64453;BME280;50813;52.654;6.766;2023-02-23T06:25:12;101282.0;;;8.75;100.0
64453;BME280;50813;52.654;6.766;2023-02-23T06:28:26;101284.0;;;8.75;100.0
64453;BME280;50813;52.654;6.766;2023-02-23T06:30:03;101287.0;;;8.76;100.0
64453;BME280;50813;52.654;6.766;2023-02-23T06:31:39;101286.0;;;8.81;100.0
64453;BME280;50813;52.654;6.766;2023-02-23T06:33:17;101289.0;;;8.71;100.0
64453;BME280;50813;52.654;6.766;2023-02-23T06:36:29;101288.0;;;8.78;100.0
64453;BME280;50813;52.654;6.766;2023-02-23T06:38:05;101294.0;;;8.98;100.0
64453;BME280;50813;52.654;6.766;2023-02-23T06:39:41;101298.0;;;8.81;100.0
64453;BME280;50813;52.654;6.766;2023-02-23T06:42:53;101299.0;;;8.98;100.0
64453;BME280;50813;52.654;6.766;2023-02-23T06:44:30;101299.0;;;8.82;100.0
64453;BME280;50813;52.654;6.766;2023-02-23T06:46:06;101303.0;;;8.83;100.0
64453;BME280;50813;52.654;6.766;2023-02-23T06:49:20;101297.0;;;8.76;100.0
64453;BME280;50813;52.654;6.766;2023-02-23T06:50:57;101297.0;;;8.68;100.0
64453;BME280;50813;52.654;6.766;2023-02-23T06:52:33;101299.0;;;8.76;100.0
64453;BME280;50813;52.654;6.766;2023-02-23T06:54:10;101302.0;;;8.86;100.0
64453;BME280;50813;52.654;6.766;2023-02-23T06:57:23;101303.0;;;8.98;100.0
64453;BME280;50813;52.654;6.766;2023-02-23T06:58:59;101300.0;;;8.91;100.0
64453;BME280;50813;52.654;6.766;2023-02-23T07:00:35;101302.0;;;9.06;100.0
64453;BME280;50813;52.654;6.766;2023-02-23T07:03:48;101306.0;;;8.9;100.0
64453;BME280;50813;52.654;6.766;2023-02-23T07:05:25;101306.0;;;9.03;100.0
64453;BME280;50813;52.654;6.766;2023-02-23T07:07:01;101309.0;;;9.11;100.0
64453;BME280;50813;52.654;6.766;2023-02-23T07:10:14;101315.0;;;8.98;100.0
64453;BME280;50813;52.654;6.766;2023-02-23T07:11:50;101320.0;;;8.92;100.0
64453;BME280;50813;52.654;6.766;2023-02-23T07:13:27;101323.0;;;9.02;100.0
64453;BME280;50813;52.654;6.766;2023-02-23T07:15:04;101330.0;;;9.09;100.0
64453;BME280;50813;52.654;6.766;2023-02-23T07:18:16;101331.0;;;8.93;100.0
64453;BME280;50813;52.654;6.766;2023-02-23T07:19:53;101331.0;;;8.89;100.0
64453;BME280;50813;52.654;6.766;2023-02-23T07:21:32;101330.0;;;8.93;100.0
64453;BME280;50813;52.654;6.766;2023-02-23T07:24:45;101332.0;;;8.98;100.0
64453;BME280;50813;52.654;6.766;2023-02-23T07:26:22;101334.0;;;8.85;100.0
64453;BME280;50813;52.654;6.766;2023-02-23T07:27:59;101337.0;;;8.88;100.0
64453;BME280;50813;52.654;6.766;2023-02-23T07:31:13;101341.0;;;8.88;100.0
64453;BME280;50813;52.654;6.766;2023-02-23T07:32:50;101342.0;;;8.81;100.0
64453;BME280;50813;52.654;6.766;2023-02-23T07:34:27;101350.0;;;8.97;100.0
64453;BME280;50813;52.654;6.766;2023-02-23T07:36:03;101355.0;;;8.98;100.0
64453;BME280;50813;52.654;6.766;2023-02-23T07:39:17;101358.0;;;8.98;100.0
64453;BME280;50813;52.654;6.766;2023-02-23T07:40:54;101360.0;;;8.98;100.0
64453;BME280;50813;52.654;6.766;2023-02-23T07:42:30;101358.0;;;9.06;100.0
64453;BME280;50813;52.654;6.766;2023-02-23T07:45:43;101358.0;;;8.85;100.0
64453;BME280;50813;52.654;6.766;2023-02-23T07:47:19;101360.0;;;8.86;100.0
64453;BME280;50813;52.654;6.766;2023-02-23T07:48:55;101369.0;;;8.71;100.0
64453;BME280;50813;52.654;6.766;2023-02-23T07:52:09;101370.0;;;8.86;100.0
64453;BME280;50813;52.654;6.766;2023-02-23T07:53:45;101370.0;;;8.91;100.0
64453;BME280;50813;52.654;6.766;2023-02-23T07:55:21;101366.0;;;8.81;100.0
64453;BME280;50813;52.654;6.766;2023-02-23T07:56:58;101368.0;;;8.77;100.0
64453;BME280;50813;52.654;6.766;2023-02-23T08:00:13;101372.0;;;8.88;100.0
64453;BME280;50813;52.654;6.766;2023-02-23T08:01:50;101371.0;;;8.89;100.0
64453;BME280;50813;52.654;6.766;2023-02-23T08:03:28;101377.0;;;8.88;100.0
64453;BME280;50813;52.654;6.766;2023-02-23T08:06:41;101380.0;;;9.09;100.0
64453;BME280;50813;52.654;6.766;2023-02-23T08:08:18;101383.0;;;9.06;100.0
64453;BME280;50813;52.654;6.766;2023-02-23T08:09:54;101378.0;;;9.01;100.0
64453;BME280;50813;52.654;6.766;2023-02-23T08:11:31;101381.0;;;9.0;100.0
64453;BME280;50813;52.654;6.766;2023-02-23T08:14:43;101382.0;;;9.06;100.0
64453;BME280;50813;52.654;6.766;2023-02-23T08:16:19;101382.0;;;9.09;100.0
64453;BME280;50813;52.654;6.766;2023-02-23T08:17:56;101382.0;;;9.03;100.0
64453;BME280;50813;52.654;6.766;2023-02-23T08:21:10;101386.0;;;8.98;100.0
64453;BME280;50813;52.654;6.766;2023-02-23T08:22:46;101387.0;;;8.9;100.0
64453;BME280;50813;52.654;6.766;2023-02-23T08:24:23;101389.0;;;8.97;100.0
64453;BME280;50813;52.654;6.766;2023-02-23T08:27:37;101391.0;;;9.06;100.0
64453;BME280;50813;52.654;6.766;2023-02-23T08:29:15;101391.0;;;8.86;100.0
64453;BME280;50813;52.654;6.766;2023-02-23T08:30:51;101390.0;;;8.89;100.0
64453;BME280;50813;52.654;6.766;2023-02-23T08:32:31;101394.0;;;8.76;100.0
64453;BME280;50813;52.654;6.766;2023-02-23T08:35:46;101396.0;;;8.81;100.0
64453;BME280;50813;52.654;6.766;2023-02-23T08:37:22;101397.0;;;8.84;100.0
64453;BME280;50813;52.654;6.766;2023-02-23T08:38:59;101394.0;;;8.77;100.0
64453;BME280;50813;52.654;6.766;2023-02-23T08:42:13;101398.0;;;8.88;100.0
64453;BME280;50813;52.654;6.766;2023-02-23T08:43:49;101399.0;;;8.83;100.0
64453;BME280;50813;52.654;6.766;2023-02-23T08:45:28;101399.0;;;8.78;100.0
64453;BME280;50813;52.654;6.766;2023-02-23T08:47:05;101405.0;;;8.96;100.0
64453;BME280;50813;52.654;6.766;2023-02-23T08:50:17;101409.0;;;8.89;100.0
64453;BME280;50813;52.654;6.766;2023-02-23T08:51:53;101407.0;;;8.89;100.0
64453;BME280;50813;52.654;6.766;2023-02-23T08:53:30;101407.0;;;8.91;100.0
64453;BME280;50813;52.654;6.766;2023-02-23T08:56:43;101411.0;;;8.74;100.0
64453;BME280;50813;52.654;6.766;2023-02-23T08:58:20;101412.0;;;8.92;100.0
64453;BME280;50813;52.654;6.766;2023-02-23T08:59:57;101411.0;;;9.02;100.0
64453;BME280;50813;52.654;6.766;2023-02-23T09:03:09;101411.0;;;9.09;100.0
64453;BME280;50813;52.654;6.766;2023-02-23T09:04:45;101411.0;;;9.1;100.0
64453;BME280;50813;52.654;6.766;2023-02-23T09:06:24;101412.0;;;9.17;100.0
64453;BME280;50813;52.654;6.766;2023-02-23T09:08:01;101416.0;;;9.1;100.0
64453;BME280;50813;52.654;6.766;2023-02-23T09:11:13;101413.0;;;9.11;100.0
64453;BME280;50813;52.654;6.766;2023-02-23T09:12:50;101413.0;;;9.16;100.0
64453;BME280;50813;52.654;6.766;2023-02-23T09:14:27;101414.0;;;9.24;100.0
64453;BME280;50813;52.654;6.766;2023-02-23T09:17:44;101419.0;;;9.24;100.0
64453;BME280;50813;52.654;6.766;2023-02-23T09:19:20;101421.0;;;9.35;100.0
64453;BME280;50813;52.654;6.766;2023-02-23T09:20:57;101420.0;;;9.13;100.0
64453;BME280;50813;52.654;6.766;2023-02-23T09:24:11;101423.0;;;9.28;100.0
64453;BME280;50813;52.654;6.766;2023-02-23T09:25:47;101424.0;;;9.31;100.0
64453;BME280;50813;52.654;6.766;2023-02-23T09:27:23;101425.0;;;9.27;100.0
64453;BME280;50813;52.654;6.766;2023-02-23T09:29:00;101434.0;;;9.35;100.0
64453;BME280;50813;52.654;6.766;2023-02-23T09:32:15;101430.0;;;9.49;100.0
64453;BME280;50813;52.654;6.766;2023-02-23T09:33:52;101430.0;;;9.49;100.0
64453;BME280;50813;52.654;6.766;2023-02-23T09:35:29;101432.0;;;9.31;100.0
64453;BME280;50813;52.654;6.766;2023-02-23T09:38:41;101430.0;;;9.27;100.0
64453;BME280;50813;52.654;6.766;2023-02-23T09:40:21;101432.0;;;9.25;100.0
64453;BME280;50813;52.654;6.766;2023-02-23T09:42:06;101434.0;;;9.24;100.0
64453;BME280;50813;52.654;6.766;2023-02-23T09:43:55;101438.0;;;9.38;100.0
64453;BME280;50813;52.654;6.766;2023-02-23T09:47:27;101438.0;;;9.4;100.0
64453;BME280;50813;52.654;6.766;2023-02-23T09:49:10;101441.0;;;9.39;100.0
64453;BME280;50813;52.654;6.766;2023-02-23T09:50:52;101444.0;;;9.56;100.0
64453;BME280;50813;52.654;6.766;2023-02-23T09:52:35;101445.0;;;9.49;99.68
64453;BME280;50813;52.654;6.766;2023-02-23T09:54:16;101446.0;;;9.35;100.0
64453;BME280;50813;52.654;6.766;2023-02-23T09:57:37;101448.0;;;9.4;100.0
64453;BME280;50813;52.654;6.766;2023-02-23T09:59:16;101445.0;;;9.44;100.0
64453;BME280;50813;52.654;6.766;2023-02-23T10:01:08;101448.0;;;9.14;99.3
64453;BME280;50813;52.654;6.766;2023-02-23T10:03:56;101443.0;;;9.23;100.0
64453;BME280;50813;52.654;6.766;2023-02-23T10:05:40;101447.0;;;9.15;100.0
64453;BME280;50813;52.654;6.766;2023-02-23T10:07:21;101446.0;;;9.15;100.0
64453;BME280;50813;52.654;6.766;2023-02-23T10:09:13;101442.0;;;9.25;100.0
64453;BME280;50813;52.654;6.766;2023-02-23T10:11:01;101441.0;;;9.19;100.0
64453;BME280;50813;52.654;6.766;2023-02-23T10:14:57;101438.0;;;9.31;100.0
64453;BME280;50813;52.654;6.766;2023-02-23T10:16:43;101442.0;;;9.31;100.0
64453;BME280;50813;52.654;6.766;2023-02-23T10:18:36;101444.0;;;9.43;100.0
64453;BME280;50813;52.654;6.766;2023-02-23T10:20:21;101445.0;;;9.36;100.0
64453;BME280;50813;52.654;6.766;2023-02-23T10:22:04;101449.0;;;9.49;100.0
64453;BME280;50813;52.654;6.766;2023-02-23T10:23:46;101451.0;;;9.5;100.0
64453;BME280;50813;52.654;6.766;2023-02-23T10:25:27;101452.0;;;9.48;100.0
64453;BME280;50813;52.654;6.766;2023-02-23T10:28:50;101455.0;;;9.4;100.0
64453;BME280;50813;52.654;6.766;2023-02-23T10:30:32;101455.0;;;9.42;100.0
64453;BME280;50813;52.654;6.766;2023-02-23T10:32:14;101458.0;;;9.55;100.0
64453;BME280;50813;52.654;6.766;2023-02-23T10:33:57;101455.0;;;9.52;100.0
64453;BME280;50813;52.654;6.766;2023-02-23T10:37:15;101455.0;;;9.66;100.0
64453;BME280;50813;52.654;6.766;2023-02-23T10:38:52;101458.0;;;9.72;100.0
64453;BME280;50813;52.654;6.766;2023-02-23T10:40:31;101461.0;;;9.65;100.0
64453;BME280;50813;52.654;6.766;2023-02-23T10:42:14;101462.0;;;9.65;100.0
64453;BME280;50813;52.654;6.766;2023-02-23T10:45:29;101471.0;;;9.64;100.0
64453;BME280;50813;52.654;6.766;2023-02-23T10:47:13;101474.0;;;9.56;99.61
64453;BME280;50813;52.654;6.766;2023-02-23T10:48:51;101474.0;;;9.58;99.97
64453;BME280;50813;52.654;6.766;2023-02-23T10:50:31;101473.0;;;9.42;100.0
64453;BME280;50813;52.654;6.766;2023-02-23T10:54:33;101471.0;;;9.41;100.0
64453;BME280;50813;52.654;6.766;2023-02-23T10:56:11;101470.0;;;9.59;100.0
64453;BME280;50813;52.654;6.766;2023-02-23T10:58:00;101471.0;;;9.58;100.0
64453;BME280;50813;52.654;6.766;2023-02-23T10:59:39;101466.0;;;9.56;100.0
64453;BME280;50813;52.654;6.766;2023-02-23T11:01:39;101471.0;;;9.64;100.0
64453;BME280;50813;52.654;6.766;2023-02-23T11:03:23;101472.0;;;9.72;99.79
64453;BME280;50813;52.654;6.766;2023-02-23T11:06:42;101474.0;;;9.98;98.71
64453;BME280;50813;52.654;6.766;2023-02-23T11:08:23;101470.0;;;9.73;98.72
64453;BME280;50813;52.654;6.766;2023-02-23T11:10:23;101465.0;;;9.82;99.13
64453;BME280;50813;52.654;6.766;2023-02-23T11:12:11;101467.0;;;9.68;98.75
64453;BME280;50813;52.654;6.766;2023-02-23T11:13:54;101464.0;;;9.73;97.54
64453;BME280;50813;52.654;6.766;2023-02-23T11:17:25;101465.0;;;9.76;98.6
64453;BME280;50813;52.654;6.766;2023-02-23T11:19:08;101464.0;;;9.81;98.08
64453;BME280;50813;52.654;6.766;2023-02-23T11:20:54;101462.0;;;9.84;97.27
64453;BME280;50813;52.654;6.766;2023-02-23T11:22:34;101466.0;;;9.93;96.38
64453;BME280;50813;52.654;6.766;2023-02-23T11:24:17;101467.0;;;9.96;95.9
64453;BME280;50813;52.654;6.766;2023-02-23T11:27:45;101468.0;;;9.91;95.73
64453;BME280;50813;52.654;6.766;2023-02-23T11:29:26;101459.0;;;10.06;96.1
64453;BME280;50813;52.654;6.766;2023-02-23T11:31:13;101463.0;;;9.99;95.77
64453;BME280;50813;52.654;6.766;2023-02-23T11:32:53;101466.0;;;9.96;97.31
64453;BME280;50813;52.654;6.766;2023-02-23T11:34:33;101466.0;;;9.82;96.75
64453;BME280;50813;52.654;6.766;2023-02-23T11:37:53;101465.0;;;9.89;96.92
64453;BME280;50813;52.654;6.766;2023-02-23T11:39:29;101468.0;;;9.99;98.52
64453;BME280;50813;52.654;6.766;2023-02-23T11:41:18;101469.0;;;10.02;97.87
64453;BME280;50813;52.654;6.766;2023-02-23T11:43:07;101475.0;;;9.91;99.02
64453;BME280;50813;52.654;6.766;2023-02-23T11:46:27;101471.0;;;9.75;99.2
64453;BME280;50813;52.654;6.766;2023-02-23T11:48:04;101475.0;;;9.64;100.0
64453;BME280;50813;52.654;6.766;2023-02-23T11:49:44;101474.0;;;9.59;99.48
64453;BME280;50813;52.654;6.766;2023-02-23T11:51:24;101475.0;;;9.59;99.88
64453;BME280;50813;52.654;6.766;2023-02-23T11:54:49;101473.0;;;9.48;100.0
64453;BME280;50813;52.654;6.766;2023-02-23T11:56:28;101473.0;;;9.51;100.0
64453;BME280;50813;52.654;6.766;2023-02-23T11:58:09;101482.0;;;9.56;100.0
64453;BME280;50813;52.654;6.766;2023-02-23T11:59:58;101480.0;;;9.34;100.0
64453;BME280;50813;52.654;6.766;2023-02-23T12:01:39;101476.0;;;9.44;100.0
64453;BME280;50813;52.654;6.766;2023-02-23T12:05:06;101480.0;;;9.64;100.0
64453;BME280;50813;52.654;6.766;2023-02-23T12:06:44;101482.0;;;9.56;100.0
64453;BME280;50813;52.654;6.766;2023-02-23T12:08:28;101480.0;;;9.46;100.0
64453;BME280;50813;52.654;6.766;2023-02-23T12:10:15;101478.0;;;9.56;100.0
64453;BME280;50813;52.654;6.766;2023-02-23T12:13:42;101482.0;;;9.42;100.0
64453;BME280;50813;52.654;6.766;2023-02-23T12:15:27;101478.0;;;9.46;100.0
64453;BME280;50813;52.654;6.766;2023-02-23T12:17:11;101480.0;;;9.48;100.0
64453;BME280;50813;52.654;6.766;2023-02-23T12:18:55;101483.0;;;9.42;100.0
64453;BME280;50813;52.654;6.766;2023-02-23T12:20:38;101478.0;;;9.53;100.0
64453;BME280;50813;52.654;6.766;2023-02-23T12:24:13;101475.0;;;9.74;100.0
64453;BME280;50813;52.654;6.766;2023-02-23T12:26:08;101478.0;;;9.6;100.0
64453;BME280;50813;52.654;6.766;2023-02-23T12:27:51;101472.0;;;9.67;100.0
64453;BME280;50813;52.654;6.766;2023-02-23T12:29:37;101477.0;;;9.49;100.0
64453;BME280;50813;52.654;6.766;2023-02-23T12:31:21;101475.0;;;9.5;100.0
64453;BME280;50813;52.654;6.766;2023-02-23T12:33:04;101478.0;;;9.44;100.0
64453;BME280;50813;52.654;6.766;2023-02-23T12:36:35;101475.0;;;9.44;100.0
64453;BME280;50813;52.654;6.766;2023-02-23T12:38:20;101477.0;;;9.4;100.0
64453;BME280;50813;52.654;6.766;2023-02-23T12:41:55;101475.0;;;9.55;100.0
64453;BME280;50813;52.654;6.766;2023-02-23T12:43:38;101474.0;;;9.56;100.0